SKPE/PEI METAR and TAF weather

Enter ICAO airport designator
Station Type Date Time Source
SKPE METAR 2020/09/20 01:00 UTC NOAA

SKPE 200100Z 09006KT 9999 FEW015TCU SCT080 22/17 A3004 RMK TCU W/NW


Station Type Date Time Source
SKPE Decoded METAR 2020/09/20 01:00 UTC NOAA

Pereira / Matecana, Colombia (SKPE) 04-49N 075-44W 1342M
Sep 19, 2020 - 09:00 PM EDT / 2020.09.20 0100 UTC
Wind: from the E (090 degrees) at 7 MPH (6 KT):0
Visibility: greater than 7 mile(s):0
Sky conditions: partly cloudy
Weather: Towering cumulus clouds observed
Temperature: 71 F (22 C)
Dew Point: 62 F (17 C)
Relative Humidity: 73%
Pressure (altimeter): 30.04 in. Hg (1017 hPa)
ob: SKPE 200100Z 09006KT 9999 FEW015TCU SCT080 22/17 A3004 RMK TCU W/NW
cycle: 1

Station Type Date Time Source
SKPE TAF 2020/09/19 18:36 UTC NOAA

TAF SKPE 191630Z 1918/2018 29006KTKT 9999 SCT017TCU SCT080
TEMPO 1921/1923 7000 VCSH PROB40
TEMPO 1923/2002 6000 DZRA
BECMG 2002/2003 VRB02KT SCT015 BKN080 PROB40
TEMPO 2006/2009 7000 DZRA
TEMPO 2010/2013 7000 VCFG TX27/1919Z TN17/2010Z

Example: see airport list